createdAt,value
2023-04-18T00:01:55.155Z,99952.88
2023-04-18T00:04:27.140Z,99939.88
2023-04-18T00:06:54.155Z,99931.59
2023-04-18T00:09:21.980Z,99930.44
2023-04-18T00:11:51.100Z,99936.91
2023-04-18T00:14:17.560Z,99928.06
2023-04-18T00:16:44.097Z,99929.06
2023-04-18T00:19:10.441Z,99937.06
2023-04-18T00:21:37.637Z,99918.22
2023-04-18T00:24:04.545Z,99918.75
2023-04-18T00:26:31.244Z,99919.13
2023-04-18T00:28:57.666Z,99920.97
2023-04-18T00:31:24.258Z,99925.06
2023-04-18T00:33:50.965Z,99905.31
2023-04-18T00:36:17.306Z,99897.88
2023-04-18T00:38:43.785Z,99909.25
2023-04-18T00:41:10.175Z,99892.38
2023-04-18T00:43:36.492Z,99893.22
2023-04-18T00:46:03.144Z,99888.88
2023-04-18T00:48:30.720Z,99880.78
2023-04-18T00:50:57.280Z,99878.56
2023-04-18T00:53:24.052Z,99863.81
2023-04-18T00:55:53.250Z,99850.75
2023-04-18T00:58:20.315Z,99860.94
2023-04-18T01:00:46.901Z,99881.97
2023-04-18T01:03:13.409Z,99900.19
2023-04-18T01:05:40.678Z,99895.03
2023-04-18T01:08:07.133Z,99902.16
2023-04-18T01:10:33.820Z,99898.53
2023-04-18T01:13:15.012Z,99907.34
2023-04-18T01:15:43.190Z,99889.16
2023-04-18T01:18:10.523Z,99897.00
2023-04-18T01:20:39.523Z,99898.13
2023-04-18T01:23:06.193Z,99889.16
2023-04-18T01:25:33.043Z,99896.25
2023-04-18T01:27:59.852Z,99912.19
2023-04-18T01:30:26.363Z,99924.78
2023-04-18T01:32:55.787Z,99929.84
2023-04-18T01:35:22.198Z,99934.34
2023-04-18T01:37:48.593Z,99934.75
2023-04-18T01:40:15.246Z,99931.13
2023-04-18T01:42:41.902Z,99923.47
2023-04-18T01:45:08.396Z,99917.69
2023-04-18T01:47:34.820Z,99904.69
2023-04-18T01:50:02.598Z,99902.22
2023-04-18T01:52:28.944Z,99888.22
2023-04-18T01:54:55.318Z,99894.53
2023-04-18T01:57:21.715Z,99896.59
2023-04-18T01:59:48.024Z,99890.59
2023-04-18T02:02:14.476Z,99885.09
2023-04-18T02:04:41.022Z,99895.59
2023-04-18T02:07:07.389Z,99879.50
2023-04-18T02:09:33.935Z,99867.44
2023-04-18T02:12:01.887Z,99869.41
2023-04-18T02:14:31.239Z,99867.91
2023-04-18T02:16:58.511Z,99868.44
2023-04-18T02:19:25.054Z,99859.09
2023-04-18T02:21:53.864Z,99857.88
2023-04-18T02:24:20.333Z,99865.38
2023-04-18T02:26:46.981Z,99804.97
2023-04-18T02:29:13.572Z,99807.69
2023-04-18T02:31:41.434Z,99826.28
2023-04-18T02:34:08.235Z,99825.22
2023-04-18T02:36:34.587Z,99841.75
2023-04-18T02:39:00.985Z,99847.38
2023-04-18T02:41:27.335Z,99837.44
2023-04-18T02:43:53.696Z,99832.72
2023-04-18T02:46:20.469Z,99839.16
2023-04-18T02:48:46.961Z,99839.03
2023-04-18T02:51:13.417Z,99827.22
2023-04-18T02:53:40.072Z,99828.78
2023-04-18T02:56:07.063Z,99847.38
2023-04-18T02:58:33.368Z,99845.34
2023-04-18T03:00:59.949Z,99823.03
2023-04-18T03:03:26.729Z,99818.84
2023-04-18T03:05:53.448Z,99825.91
2023-04-18T03:08:20.109Z,99830.69
2023-04-18T03:10:46.516Z,99842.75
2023-04-18T03:13:12.955Z,99860.22
2023-04-18T03:15:39.383Z,99856.47
2023-04-18T03:18:06.003Z,99848.94
2023-04-18T03:20:32.634Z,99827.66
2023-04-18T03:22:59.316Z,99810.41
2023-04-18T03:25:25.764Z,99808.66
2023-04-18T03:27:52.220Z,99801.16
2023-04-18T03:30:18.718Z,99793.13
2023-04-18T03:32:46.115Z,99808.84
2023-04-18T03:35:12.600Z,99845.66
2023-04-18T03:37:38.961Z,99836.97
2023-04-18T03:40:06.166Z,99848.59
2023-04-18T03:42:32.879Z,99836.91
2023-04-18T03:44:59.881Z,99825.09
2023-04-18T03:47:26.682Z,99821.03
2023-04-18T03:49:53.505Z,99826.34
2023-04-18T03:52:20.047Z,99823.56
2023-04-18T03:54:46.840Z,99829.88
2023-04-18T03:57:13.516Z,99844.94
2023-04-18T03:59:39.927Z,99847.59
2023-04-18T04:02:06.520Z,99854.44
2023-04-18T04:04:33.307Z,99836.69
2023-04-18T04:07:00.161Z,99832.19
2023-04-18T04:09:26.868Z,99844.66
2023-04-18T04:11:53.216Z,99851.50
2023-04-18T04:14:19.934Z,99808.91
2023-04-18T04:16:46.655Z,99841.41
2023-04-18T04:19:13.194Z,99849.00
2023-04-18T04:21:39.901Z,99849.38
2023-04-18T04:24:06.608Z,99846.88
2023-04-18T04:26:34.435Z,99833.72
2023-04-18T04:29:01.243Z,99830.22
2023-04-18T04:31:27.810Z,99847.16
2023-04-18T04:33:54.559Z,99858.75
2023-04-18T04:36:20.961Z,99856.81
2023-04-18T04:38:47.396Z,99842.19
2023-04-18T04:41:13.909Z,99812.78
2023-04-18T04:43:40.378Z,99825.84
2023-04-18T04:46:07.180Z,99827.28
2023-04-18T04:48:33.941Z,99815.44
2023-04-18T04:51:01.214Z,99825.44
2023-04-18T04:53:29.150Z,99837.38
2023-04-18T04:55:55.728Z,99831.88
2023-04-18T04:58:22.197Z,99833.72
2023-04-18T05:00:48.587Z,99831.22
2023-04-18T05:03:17.370Z,99835.41
2023-04-18T05:05:43.972Z,99852.50
2023-04-18T05:08:10.378Z,99851.34
2023-04-18T05:10:36.856Z,99831.75
2023-04-18T05:13:04.466Z,99842.91
2023-04-18T05:15:31.537Z,99860.81
2023-04-18T05:17:58.369Z,99856.22
2023-04-18T05:20:24.957Z,99858.59
2023-04-18T05:22:51.369Z,99835.34
2023-04-18T05:25:18.027Z,99865.53
2023-04-18T05:27:45.793Z,99847.94
2023-04-18T05:30:12.684Z,99854.56
2023-04-18T05:32:39.421Z,99852.03
2023-04-18T05:35:07.411Z,99867.00
2023-04-18T05:37:34.114Z,99850.22
2023-04-18T05:40:00.904Z,99833.44
2023-04-18T05:42:27.938Z,99833.97
2023-04-18T05:44:54.528Z,99826.38
2023-04-18T05:47:21.142Z,99828.72
2023-04-18T05:49:47.725Z,99826.91
2023-04-18T05:52:14.194Z,99824.38
2023-04-18T05:54:40.578Z,99814.31
2023-04-18T05:57:07.325Z,99822.31
2023-04-18T05:59:33.683Z,99805.44
2023-04-18T06:02:00.328Z,99808.19
2023-04-18T06:04:27.364Z,99826.91
2023-04-18T06:06:53.992Z,99820.81
2023-04-18T06:09:20.453Z,99818.16
2023-04-18T06:11:46.973Z,99807.06
2023-04-18T06:14:13.671Z,99819.53
2023-04-18T06:16:41.180Z,99824.06
2023-04-18T06:19:08.000Z,99823.75
2023-04-18T06:21:34.448Z,99782.63
2023-04-18T06:24:00.963Z,99787.19
2023-04-18T06:26:27.417Z,99778.03
2023-04-18T06:28:54.117Z,99773.31
2023-04-18T06:31:20.522Z,99771.66
2023-04-18T06:33:47.003Z,99759.09
2023-04-18T06:36:13.545Z,99783.41
2023-04-18T06:38:39.964Z,99755.91
2023-04-18T06:41:06.733Z,99760.81
2023-04-18T06:43:33.143Z,99780.16
2023-04-18T06:45:59.766Z,99739.00
2023-04-18T06:48:26.500Z,99763.16
2023-04-18T06:50:53.265Z,99780.44
2023-04-18T06:53:19.948Z,99783.56
2023-04-18T06:55:46.379Z,99788.28
2023-04-18T06:58:13.976Z,99740.50
2023-04-18T07:00:40.407Z,99722.50
2023-04-18T07:03:08.090Z,99749.94
2023-04-18T07:05:36.761Z,99745.00
2023-04-18T07:08:03.395Z,99727.22
2023-04-18T07:10:30.219Z,99722.41
2023-04-18T07:12:56.881Z,99737.13
2023-04-18T07:15:23.503Z,99745.88
2023-04-18T07:17:50.284Z,99750.44
2023-04-18T07:20:17.054Z,99725.41
2023-04-18T07:22:43.520Z,99746.22
2023-04-18T07:25:09.982Z,99741.81
2023-04-18T07:27:37.406Z,99734.53
2023-04-18T07:30:04.826Z,99684.91
2023-04-18T07:32:31.222Z,99679.25
2023-04-18T07:34:57.920Z,99690.03
2023-04-18T07:37:25.743Z,99695.84
2023-04-18T07:39:52.317Z,99651.75
2023-04-18T07:42:19.004Z,99638.72
2023-04-18T07:44:45.452Z,99681.72
2023-04-18T07:47:12.210Z,99684.91
2023-04-18T07:49:39.104Z,99678.22
2023-04-18T07:52:05.685Z,99677.72
2023-04-18T07:54:32.256Z,99680.38
2023-04-18T07:56:59.330Z,99652.56
2023-04-18T07:59:25.833Z,99640.88
2023-04-18T08:01:52.240Z,99641.88
2023-04-18T08:04:18.984Z,99598.69
2023-04-18T08:06:45.875Z,99593.59
2023-04-18T08:09:12.373Z,99564.50
2023-04-18T08:11:39.244Z,99572.31
2023-04-18T08:14:05.831Z,99523.69
2023-04-18T08:16:32.290Z,99518.75
2023-04-18T08:18:59.240Z,99505.00
2023-04-18T08:21:25.718Z,99500.44
2023-04-18T08:23:52.280Z,99470.69
2023-04-18T08:26:18.755Z,99472.75
2023-04-18T08:28:46.528Z,99504.44
2023-04-18T08:31:15.405Z,99444.41
2023-04-18T08:33:42.222Z,99460.91
2023-04-18T08:36:09.574Z,99481.84
2023-04-18T08:38:36.061Z,99496.00
2023-04-18T08:41:02.603Z,99540.69
2023-04-18T08:43:29.400Z,99490.28
2023-04-18T08:45:59.407Z,99519.38
2023-04-18T08:48:26.181Z,99534.03
2023-04-18T08:50:57.168Z,99536.75
2023-04-18T08:53:23.564Z,99564.28
2023-04-18T08:55:57.023Z,99525.84
2023-04-18T08:58:23.996Z,99532.59
2023-04-18T09:00:54.630Z,99562.16
2023-04-18T09:03:39.416Z,99507.94
2023-04-18T09:06:17.143Z,99517.78
2023-04-18T09:08:55.934Z,99559.41
2023-04-18T09:11:23.747Z,99562.34
2023-04-18T09:13:50.164Z,99572.38
2023-04-18T09:16:18.214Z,99516.78
2023-04-18T09:19:08.645Z,99468.53
2023-04-18T09:21:36.477Z,99455.53
2023-04-18T09:24:16.796Z,99411.75
2023-04-18T09:26:43.312Z,99422.44
2023-04-18T09:29:09.804Z,99421.22
2023-04-18T09:32:01.492Z,99406.41
2023-04-18T09:34:29.213Z,99342.50
2023-04-18T09:37:10.377Z,99348.25
2023-04-18T09:39:43.406Z,99365.66
2023-04-18T09:42:10.883Z,99354.25
2023-04-18T09:44:38.223Z,99290.59
2023-04-18T09:47:07.073Z,99282.72
2023-04-18T09:49:33.898Z,99242.66
2023-04-18T09:52:06.232Z,99256.25
2023-04-18T09:54:33.370Z,99247.38
2023-04-18T09:57:02.659Z,99254.28
2023-04-18T09:59:37.524Z,99273.06
2023-04-18T10:02:08.664Z,99265.13
2023-04-18T10:04:35.582Z,99276.41
2023-04-18T10:07:02.833Z,99284.81
2023-04-18T10:09:32.846Z,99279.78
2023-04-18T10:12:00.862Z,99245.19
2023-04-18T10:14:28.514Z,99252.81
2023-04-18T10:16:57.685Z,99248.38
2023-04-18T10:19:26.425Z,99260.44
2023-04-18T10:21:58.357Z,99256.94
2023-04-18T10:24:50.685Z,99265.91
2023-04-18T10:27:17.749Z,99269.06
2023-04-18T10:29:48.850Z,99267.69
2023-04-18T10:32:17.079Z,99249.53
2023-04-18T10:34:44.262Z,99267.25
2023-04-18T10:37:10.997Z,99231.22
2023-04-18T10:39:58.740Z,99235.41
2023-04-18T10:42:46.741Z,99217.88
2023-04-18T10:45:24.724Z,99201.75
2023-04-18T10:48:11.259Z,99207.34
2023-04-18T10:51:16.926Z,99213.28
2023-04-18T10:53:48.793Z,99196.00
2023-04-18T10:56:15.336Z,99216.41
2023-04-18T10:58:44.094Z,99219.09
2023-04-18T11:01:14.489Z,99207.50
2023-04-18T11:03:41.388Z,99200.47
2023-04-18T11:06:08.206Z,99221.28
2023-04-18T11:08:34.932Z,99207.13
2023-04-18T11:11:01.699Z,99201.59
2023-04-18T11:13:28.932Z,99181.72
2023-04-18T11:15:55.657Z,99207.03
2023-04-18T11:18:22.520Z,99210.00
2023-04-18T11:20:51.375Z,99204.63
2023-04-18T11:23:20.395Z,99208.31
2023-04-18T11:25:48.754Z,99192.00
2023-04-18T11:28:19.939Z,99202.94
2023-04-18T11:30:46.772Z,99204.81
2023-04-18T11:33:14.323Z,99201.38
2023-04-18T11:35:43.614Z,99211.63
2023-04-18T11:38:12.618Z,99199.19
2023-04-18T11:40:39.365Z,99227.44
2023-04-18T11:43:07.592Z,99210.78
2023-04-18T11:45:34.160Z,99210.41
2023-04-18T11:48:01.070Z,99203.75
2023-04-18T11:50:36.209Z,99188.53
2023-04-18T11:53:02.736Z,99212.78
2023-04-18T11:55:29.297Z,99214.84
2023-04-18T11:58:00.410Z,99209.34
2023-04-18T12:00:45.205Z,99202.13
2023-04-18T12:03:17.113Z,99184.44
2023-04-18T12:05:44.343Z,99183.81
2023-04-18T12:08:19.463Z,99176.34
2023-04-18T12:10:50.912Z,99170.38
2023-04-18T12:13:17.987Z,99173.03
2023-04-18T12:15:46.433Z,99176.19
2023-04-18T12:18:14.438Z,99189.97
2023-04-18T12:20:44.901Z,99185.84
2023-04-18T12:23:30.450Z,99181.13
2023-04-18T12:26:07.882Z,99177.81
2023-04-18T12:28:35.374Z,99188.75
2023-04-18T12:31:02.159Z,99183.56
2023-04-18T12:33:28.688Z,99175.53
2023-04-18T12:35:55.018Z,99164.84
2023-04-18T12:38:22.733Z,99164.16
2023-04-18T12:40:51.011Z,99160.88
2023-04-18T12:43:18.541Z,99169.34
2023-04-18T12:45:49.435Z,99169.78
2023-04-18T12:48:15.967Z,99167.88
2023-04-18T12:50:42.376Z,99153.25
2023-04-18T12:53:09.206Z,99156.53
2023-04-18T12:55:36.126Z,99145.06
2023-04-18T12:58:02.821Z,99132.38
2023-04-18T13:00:31.635Z,99135.75
2023-04-18T13:02:58.870Z,99134.25
2023-04-18T13:05:28.671Z,99143.94
2023-04-18T13:08:08.506Z,99145.44
2023-04-18T13:10:40.062Z,99143.25
2023-04-18T13:13:06.585Z,99144.78
2023-04-18T13:15:34.377Z,99139.88
2023-04-18T13:18:04.979Z,99132.75
2023-04-18T13:20:32.491Z,99153.25
2023-04-18T13:22:59.969Z,99132.88
2023-04-18T13:25:28.475Z,99135.66
2023-04-18T13:27:55.540Z,99129.88
2023-04-18T13:30:22.096Z,99129.28
2023-04-18T13:32:48.484Z,99125.03
2023-04-18T13:35:14.892Z,99121.84
2023-04-18T13:37:41.694Z,99123.38
2023-04-18T13:40:08.451Z,99125.03
2023-04-18T13:42:36.541Z,99129.38
2023-04-18T13:45:03.501Z,99127.97
2023-04-18T13:47:30.634Z,99128.84
2023-04-18T13:49:57.107Z,99136.09
2023-04-18T13:52:23.786Z,99135.22
2023-04-18T13:54:50.638Z,99132.53
2023-04-18T13:57:17.541Z,99136.28
2023-04-18T13:59:47.086Z,99139.63
2023-04-18T14:02:13.980Z,99139.19
2023-04-18T14:04:41.098Z,99137.56
2023-04-18T14:07:08.337Z,99131.16
2023-04-18T14:09:34.935Z,99145.59
2023-04-18T14:12:01.596Z,99148.84
2023-04-18T14:14:28.171Z,99146.22
2023-04-18T14:16:54.814Z,99149.06
2023-04-18T14:19:21.364Z,99146.22
2023-04-18T14:21:47.994Z,99137.53
2023-04-18T14:24:15.351Z,99149.72
2023-04-18T14:26:42.529Z,99156.13
2023-04-18T14:29:09.074Z,99149.69
2023-04-18T14:31:35.605Z,99150.16
2023-04-18T14:34:02.245Z,99153.00
2023-04-18T14:36:28.890Z,99136.91
2023-04-18T14:38:55.525Z,99141.03
2023-04-18T14:41:22.243Z,99142.28
2023-04-18T14:43:48.853Z,99141.00
2023-04-18T14:46:15.726Z,99148.28
2023-04-18T14:48:44.585Z,99137.34
2023-04-18T14:51:11.260Z,99154.69
2023-04-18T14:53:38.046Z,99149.97
2023-04-18T14:56:04.857Z,99161.09
2023-04-18T14:58:31.240Z,99152.59
2023-04-18T15:00:57.694Z,99152.41
2023-04-18T15:03:24.518Z,99157.78
2023-04-18T15:05:51.494Z,99148.06
2023-04-18T15:08:18.814Z,99166.25
2023-04-18T15:10:45.561Z,99158.41
2023-04-18T15:13:12.002Z,99163.78
2023-04-18T15:15:38.872Z,99159.03
2023-04-18T15:18:06.970Z,99164.19
2023-04-18T15:20:33.455Z,99163.78
2023-04-18T15:23:00.886Z,99167.69
2023-04-18T15:25:27.455Z,99152.66
2023-04-18T15:27:54.478Z,99157.38
2023-04-18T15:30:21.270Z,99148.09
2023-04-18T15:32:48.170Z,99150.78
2023-04-18T15:35:15.310Z,99147.66
2023-04-18T15:37:44.273Z,99152.22
2023-04-18T15:40:11.414Z,99146.81
2023-04-18T15:42:39.626Z,99136.91
2023-04-18T15:45:06.741Z,99152.41
2023-04-18T15:47:34.465Z,99149.97
2023-04-18T15:50:00.950Z,99150.78
2023-04-18T15:52:30.082Z,99156.97
2023-04-18T15:54:57.451Z,99148.28
2023-04-18T15:57:23.947Z,99151.78
2023-04-18T15:59:50.267Z,99145.22
2023-04-18T16:02:16.841Z,99158.41
2023-04-18T16:04:43.639Z,99154.06
2023-04-18T16:07:11.131Z,99169.56
2023-04-18T16:09:37.648Z,99170.38
2023-04-18T16:12:04.346Z,99174.50
2023-04-18T16:14:31.126Z,99184.59
2023-04-18T16:17:00.256Z,99180.28
2023-04-18T16:19:26.664Z,99191.81
2023-04-18T16:21:53.340Z,99188.72
2023-04-18T16:24:19.820Z,99190.97
2023-04-18T16:26:46.247Z,99200.88
2023-04-18T16:29:12.698Z,99189.13
2023-04-18T16:31:39.168Z,99197.16
2023-04-18T16:34:05.774Z,99189.56
2023-04-18T16:36:35.375Z,99199.66
2023-04-18T16:39:01.888Z,99210.38
2023-04-18T16:41:28.376Z,99210.94
2023-04-18T16:43:54.781Z,99224.53
2023-04-18T16:46:21.595Z,99227.19
2023-04-18T16:48:48.593Z,99220.44
2023-04-18T16:51:15.865Z,99222.66
2023-04-18T16:53:42.979Z,99217.72
2023-04-18T16:56:09.543Z,99247.13
2023-04-18T16:58:36.052Z,99255.59
2023-04-18T17:01:02.494Z,99251.53
2023-04-18T17:03:29.120Z,99248.38
2023-04-18T17:05:55.727Z,99264.06
2023-04-18T17:08:22.435Z,99259.31
2023-04-18T17:10:51.971Z,99270.69
2023-04-18T17:13:18.750Z,99256.50
2023-04-18T17:15:45.112Z,99247.44
2023-04-18T17:18:11.972Z,99254.78
2023-04-18T17:20:38.477Z,99258.47
2023-04-18T17:23:04.971Z,99253.22
2023-04-18T17:25:31.353Z,99255.41
2023-04-18T17:27:57.866Z,99265.91
2023-04-18T17:30:24.333Z,99272.44
2023-04-18T17:32:50.807Z,99296.47
2023-04-18T17:35:17.444Z,99304.66
2023-04-18T17:37:44.235Z,99310.44
2023-04-18T17:40:11.185Z,99306.31
2023-04-18T17:42:37.970Z,99292.22
2023-04-18T17:45:08.836Z,99313.09
2023-04-18T17:47:35.899Z,99318.44
2023-04-18T17:50:05.995Z,99328.31
2023-04-18T17:52:32.852Z,99332.97
2023-04-18T17:55:00.062Z,99337.31
2023-04-18T17:57:26.534Z,99348.97
2023-04-18T17:59:53.919Z,99315.66
2023-04-18T18:02:20.542Z,99324.63
2023-04-18T18:04:47.211Z,99346.69
2023-04-18T18:07:13.707Z,99342.50
2023-04-18T18:09:40.453Z,99336.75
2023-04-18T18:12:07.454Z,99349.41
2023-04-18T18:14:33.802Z,99368.31
2023-04-18T18:17:00.283Z,99383.69
2023-04-18T18:19:26.726Z,99386.84
2023-04-18T18:21:53.307Z,99384.22
2023-04-18T18:24:19.774Z,99370.78
2023-04-18T18:26:46.267Z,99390.69
2023-04-18T18:29:13.348Z,99403.84
2023-04-18T18:31:41.222Z,99406.25
2023-04-18T18:34:07.827Z,99412.81
2023-04-18T18:36:34.859Z,99426.56
2023-04-18T18:39:01.535Z,99429.63
2023-04-18T18:41:29.239Z,99427.78
2023-04-18T18:43:55.875Z,99441.16
2023-04-18T18:46:22.479Z,99430.50
2023-04-18T18:48:48.888Z,99447.09
2023-04-18T18:51:17.880Z,99469.25
2023-04-18T18:53:44.743Z,99484.03
2023-04-18T18:56:11.810Z,99485.47
2023-04-18T18:58:38.604Z,99485.47
2023-04-18T19:01:05.655Z,99480.97
2023-04-18T19:03:32.329Z,99494.59
2023-04-18T19:05:58.726Z,99482.09
2023-04-18T19:08:25.573Z,99480.69
2023-04-18T19:10:52.316Z,99492.69
2023-04-18T19:13:21.685Z,99492.97
2023-04-18T19:15:48.542Z,99509.41
2023-04-18T19:18:15.357Z,99508.88
2023-04-18T19:20:42.002Z,99523.59
2023-04-18T19:23:08.443Z,99522.97
2023-04-18T19:25:37.346Z,99516.69
2023-04-18T19:28:04.154Z,99528.41
2023-04-18T19:30:30.589Z,99546.84
2023-04-18T19:32:58.398Z,99548.06
2023-04-18T19:35:25.020Z,99549.44
2023-04-18T19:37:51.770Z,99561.53
2023-04-18T19:40:18.262Z,99565.38
2023-04-18T19:42:45.079Z,99563.84
2023-04-18T19:45:13.181Z,99572.22
2023-04-18T19:47:39.962Z,99533.84
2023-04-18T19:50:07.187Z,99533.41
2023-04-18T19:52:33.624Z,99526.69
2023-04-18T19:55:04.170Z,99548.97
2023-04-18T19:57:30.616Z,99532.13
2023-04-18T19:59:57.939Z,99557.38
2023-04-18T20:02:25.412Z,99558.09
2023-04-18T20:04:52.342Z,99580.22
2023-04-18T20:07:20.485Z,99587.41
2023-04-18T20:09:55.195Z,99587.41
2023-04-18T20:12:22.218Z,99617.09
2023-04-18T20:14:48.909Z,99628.44
2023-04-18T20:17:15.689Z,99629.91
2023-04-18T20:19:42.206Z,99607.97
2023-04-18T20:22:08.849Z,99628.72
2023-04-18T20:24:35.216Z,99638.34
2023-04-18T20:27:02.319Z,99646.06
2023-04-18T20:29:28.674Z,99640.59
2023-04-18T20:31:55.063Z,99659.88
2023-04-18T20:34:21.786Z,99673.16
2023-04-18T20:36:48.408Z,99655.88
2023-04-18T20:39:15.901Z,99688.13
2023-04-18T20:41:42.954Z,99686.16
2023-04-18T20:44:09.341Z,99691.63
2023-04-18T20:46:35.659Z,99686.63
2023-04-18T20:49:02.080Z,99696.19
2023-04-18T20:51:28.476Z,99703.88
2023-04-18T20:53:54.878Z,99709.22
2023-04-18T20:56:21.286Z,99704.19
2023-04-18T20:58:48.055Z,99712.22
2023-04-18T21:01:14.498Z,99722.94
2023-04-18T21:03:42.288Z,99715.41
2023-04-18T21:06:09.606Z,99722.59
2023-04-18T21:08:36.028Z,99714.28
2023-04-18T21:11:02.473Z,99710.22
2023-04-18T21:13:28.973Z,99725.63
2023-04-18T21:15:56.027Z,99713.03
2023-04-18T21:18:23.276Z,99686.75
2023-04-18T21:20:50.271Z,99702.94
2023-04-18T21:23:16.747Z,99712.91
2023-04-18T21:25:43.104Z,99722.94
2023-04-18T21:28:09.650Z,99735.03
2023-04-18T21:30:36.093Z,99743.38
2023-04-18T21:33:05.490Z,99738.50
2023-04-18T21:35:31.905Z,99747.72
2023-04-18T21:37:58.378Z,99740.72
2023-04-18T21:40:25.458Z,99767.28
2023-04-18T21:42:53.422Z,99763.59
2023-04-18T21:45:19.780Z,99754.06
2023-04-18T21:47:46.132Z,99750.94
2023-04-18T21:50:13.552Z,99724.66
2023-04-18T21:52:39.995Z,99710.44
2023-04-18T21:55:06.568Z,99731.19
2023-04-18T21:57:33.309Z,99748.94
2023-04-18T22:00:02.088Z,99753.25
2023-04-18T22:02:30.089Z,99747.22
2023-04-18T22:04:56.925Z,99724.00
2023-04-18T22:07:23.451Z,99720.78
2023-04-18T22:09:50.241Z,99724.38
2023-04-18T22:12:16.872Z,99745.78
2023-04-18T22:14:43.484Z,99735.91
2023-04-18T22:17:09.889Z,99729.56
2023-04-18T22:19:39.098Z,99733.38
2023-04-18T22:22:05.730Z,99708.69
2023-04-18T22:24:32.195Z,99726.41
2023-04-18T22:26:58.846Z,99741.59
2023-04-18T22:29:25.223Z,99732.72
2023-04-18T22:31:51.591Z,99722.38
2023-04-18T22:34:18.176Z,99748.28
2023-04-18T22:36:45.278Z,99762.66
2023-04-18T22:39:12.038Z,99769.28
2023-04-18T22:41:40.880Z,99750.44
2023-04-18T22:44:07.360Z,99747.13
2023-04-18T22:46:34.194Z,99741.91
2023-04-18T22:49:00.707Z,99758.84
2023-04-18T22:51:27.043Z,99775.53
2023-04-18T22:53:53.330Z,99773.50
2023-04-18T22:56:19.729Z,99771.66
2023-04-18T22:58:46.056Z,99754.31
2023-04-18T23:01:13.192Z,99773.53
2023-04-18T23:03:42.702Z,99764.66
2023-04-18T23:06:09.531Z,99757.66
2023-04-18T23:08:39.019Z,99771.16
2023-04-18T23:11:05.505Z,99779.03
2023-04-18T23:13:31.876Z,99783.69
2023-04-18T23:15:58.278Z,99768.84
2023-04-18T23:18:24.996Z,99749.44
2023-04-18T23:20:51.437Z,99747.94
2023-04-18T23:23:18.098Z,99742.47
2023-04-18T23:25:44.487Z,99760.34
2023-04-18T23:28:11.015Z,99759.19
2023-04-18T23:30:37.759Z,99766.34
2023-04-18T23:33:04.276Z,99774.84
2023-04-18T23:35:31.461Z,99781.53
2023-04-18T23:37:58.155Z,99767.66
2023-04-18T23:40:24.750Z,99783.88
2023-04-18T23:42:51.198Z,99784.53
2023-04-18T23:45:17.705Z,99787.88
2023-04-18T23:47:44.213Z,99780.88
2023-04-18T23:50:10.919Z,99782.56
2023-04-18T23:52:37.559Z,99791.03
2023-04-18T23:55:04.432Z,99779.53
2023-04-18T23:57:30.859Z,99773.56
2023-04-18T23:59:57.274Z,99792.72
